createdAt,value
2022-09-14T00:00:32.609Z,1011.0
2022-09-14T00:15:22.946Z,1011.0
2022-09-14T00:30:22.671Z,1010.0
2022-09-14T00:45:22.754Z,1010.0
2022-09-14T01:00:32.376Z,1010.0
2022-09-14T01:15:23.123Z,1010.0
2022-09-14T01:30:26.330Z,1010.0
2022-09-14T01:45:22.763Z,1010.0
2022-09-14T02:00:38.439Z,1010.5
2022-09-14T02:15:23.322Z,1010.7
2022-09-14T02:30:23.590Z,1010.3
2022-09-14T02:45:23.407Z,1010.3
2022-09-14T03:00:23.709Z,1010.0
2022-09-14T03:15:23.038Z,1010.0
2022-09-14T03:30:22.980Z,1010.0
2022-09-14T03:45:23.037Z,1010.0
2022-09-14T04:00:36.495Z,1010.0
2022-09-14T04:15:22.949Z,1010.0
2022-09-14T04:30:24.352Z,1010.0
2022-09-14T04:45:23.007Z,1010.0
2022-09-14T05:00:23.332Z,1010.0
2022-09-14T05:15:23.048Z,1010.0
2022-09-14T05:30:23.505Z,1010.0
2022-09-14T05:45:23.104Z,1010.0
2022-09-14T06:00:42.528Z,1010.0
2022-09-14T06:15:23.139Z,1010.0
2022-09-14T06:30:29.905Z,1010.0
2022-09-14T06:45:23.455Z,1010.0
2022-09-14T07:00:25.974Z,1010.0
2022-09-14T07:15:23.356Z,1010.0
2022-09-14T07:30:23.938Z,1010.0
2022-09-14T07:45:23.171Z,1010.0
2022-09-14T08:00:24.266Z,1010.0
2022-09-14T08:15:27.805Z,1010.0
2022-09-14T08:30:29.067Z,1010.7
2022-09-14T08:45:23.409Z,1010.7
2022-09-14T09:00:24.931Z,1011.0
2022-09-14T09:15:23.380Z,1011.0
2022-09-14T09:30:24.522Z,1010.7
2022-09-14T09:45:23.460Z,1010.0
2022-09-14T10:00:24.280Z,1010.0
2022-09-14T10:15:23.449Z,1009.7
2022-09-14T10:30:23.659Z,1009.0
2022-09-14T10:45:23.543Z,1009.0
2022-09-14T11:00:25.995Z,1009.0
2022-09-14T11:15:23.665Z,1009.0
2022-09-14T11:30:32.750Z,1009.0
2022-09-14T11:45:32.557Z,1008.3
2022-09-14T12:00:34.077Z,1009.0
2022-09-14T12:15:22.918Z,1009.0
2022-09-14T12:30:26.941Z,1009.0
2022-09-14T12:45:22.696Z,1009.5
2022-09-14T13:00:22.762Z,1010.0
2022-09-14T13:15:22.856Z,1010.0
2022-09-14T13:30:27.698Z,1010.0
2022-09-14T13:45:22.766Z,1010.0
2022-09-14T14:00:36.665Z,1010.0
2022-09-14T14:15:22.783Z,1010.0
2022-09-14T14:30:22.872Z,1010.0
2022-09-14T14:45:22.818Z,1010.0
2022-09-14T15:00:24.874Z,1010.0
2022-09-14T15:15:22.888Z,1010.0
2022-09-14T15:30:22.867Z,1010.0
2022-09-14T15:56:10.987Z,1009.0
2022-09-14T16:11:11.420Z,1009.0
2022-09-14T16:31:38.183Z,1008.5
2022-09-14T16:46:38.480Z,1008.5
2022-09-14T17:01:38.366Z,1009.0
2022-09-14T17:15:23.408Z,1009.0
2022-09-14T17:30:23.340Z,1009.0
2022-09-14T17:45:23.495Z,1009.0
2022-09-14T18:00:25.255Z,1009.0
2022-09-14T18:15:22.905Z,1009.0
2022-09-14T18:30:25.671Z,1009.0
2022-09-14T18:45:22.942Z,1009.0
2022-09-14T19:00:25.256Z,1009.0
2022-09-14T19:15:22.910Z,1009.0
2022-09-14T19:30:26.225Z,1009.0
2022-09-14T19:45:22.815Z,1009.0
2022-09-14T20:00:23.052Z,1009.0
2022-09-14T20:15:22.843Z,1009.0
2022-09-14T20:30:23.375Z,1009.0
2022-09-14T20:45:22.939Z,1009.0
2022-09-14T21:00:29.062Z,1009.3
2022-09-14T21:15:23.076Z,1010.0
2022-09-14T21:30:23.101Z,1009.7
2022-09-14T21:45:23.089Z,1010.0
2022-09-14T22:15:23.087Z,1009.0
2022-09-14T22:30:23.261Z,1009.0
2022-09-14T22:45:23.059Z,1009.0
2022-09-14T23:00:31.808Z,1010.0
2022-09-14T23:15:23.086Z,1010.0
2022-09-14T23:30:23.165Z,1010.0
2022-09-14T23:45:23.137Z,1010.0
